Tampico Airport, Mexico

8:43 AM CDT on August 23, 2014 (GMT -0500)
Gen Francisco Javier Mina | Change Station
CLOSE
Current Station
Airport
Location: Tampico,
Elevation: 79 ft
Nearby Weather Stations

Elev 79 ft 22.30 °N, 97.87 °W | Updated 54 minutes ago

Scattered Clouds
Scattered Clouds
77 °F
Feels Like 77 °F
N
0
Wind Variable Wind from North

Today
High -- | Low -- °F
--% Chance of Precip.
Yesterday
High -- | Low -- °F
Precip. -- in
7:11 AM 7:56 PM
Waning Crescent, 4% visible
Pressure 29.96 in
Visibility 6.0 miles
Clouds Few 7000 ft
Scattered Clouds 20000 ft
Dew Point 75 °F
Humidity 94%
Rainfall 0.00 in
Snow Depth Not available.
UV 0 out of 12
Pollen Not available.
Air Quality Not available.
Flu Activity Not available.
METAR MMTM 231249Z 00000KT 6SM FEW070 SCT200 25/24 A2996 RMK 8/038 HZY/ DSNT TCU SE

More Conditions Fewer Conditions

Pressure 29.96 in
Visibility 6.0 miles
Clouds Few 7000 ft
Scattered Clouds 20000 ft
Dew Point 75 °F
Humidity 94%
Rainfall 0.00 in
Snow Depth Not available.
UV 0 out of 12
Pollen Not available.
Air Quality Not available.
Flu Activity Not available.
METAR MMTM 231249Z 00000KT 6SM FEW070 SCT200 25/24 A2996 RMK 8/038 HZY/ DSNT TCU SE

More Conditions Fewer Conditions

10-Day Weather Forecast

Almanac

Astronomy

Aug. 23, 2014 Rise Set
Actual Time 7:11 AM CDT 7:56 PM CDT
Civil Twilight 6:48 AM CDT 8:19 PM CDT
Nautical Twilight 6:21 AM CDT 8:46 PM CDT
Astronomical Twilight 5:54 AM CDT 9:13 PM CDT
Moon 5:33 AM CDT 6:40 PM CDT
Length of Visible Light 13h 30m
Length of Day
12h 44m
Tomorrow will be 1m 10s shorter.
Waning Crescent, 4% of the Moon is Illuminated
Today
Waning Crescent
Aug 25
New
Sep 2
First Quarter
Sep 8
Full
Sep 15
Last Quarter

Yesterday's Extremes

Country Highs Country Lows

Community

WunderPhotos

Upload Photos

1,746,455 photos uploaded!

WunderBlogs® & News

By Dr. Jeff Masters
Director of Meteorology, Weather Underground
By Kari Strenfel
Meteorologist, Weather Underground
By Christopher C. Burt
Weather Historian, Weather Underground
August 23, 2014
August 23, 2014
August 23, 2014

Nearby

Snow Depth

Not available.

Earthquake Activity

City Distance Mag. Time & Date
No recent earthquake activity has been reported nearby.
Minimum magnitude displayed is 2.5.

Coastal Water Temperatures

Place Temperature
No Stations Reporting

Nearby Weather Stations